sensor_id;sensor_type;location;lat;lon;timestamp;P1;durP1;ratioP1;P2;durP2;ratioP2
2928;SDS011;1474;51.460;7.150;2023-04-01T00:00:56;4.00;;;0.85;;
2928;SDS011;1474;51.460;7.150;2023-04-01T00:03:24;0.80;;;0.40;;
2928;SDS011;1474;51.460;7.150;2023-04-01T00:05:52;2.10;;;0.63;;
2928;SDS011;1474;51.460;7.150;2023-04-01T00:08:18;0.40;;;0.40;;
2928;SDS011;1474;51.460;7.150;2023-04-01T00:10:44;1.55;;;0.65;;
2928;SDS011;1474;51.460;7.150;2023-04-01T00:13:10;4.32;;;1.00;;
2928;SDS011;1474;51.460;7.150;2023-04-01T00:15:36;0.55;;;0.52;;
2928;SDS011;1474;51.460;7.150;2023-04-01T00:18:02;0.90;;;0.63;;
2928;SDS011;1474;51.460;7.150;2023-04-01T00:20:28;1.35;;;0.52;;
2928;SDS011;1474;51.460;7.150;2023-04-01T00:22:54;0.57;;;0.50;;
2928;SDS011;1474;51.460;7.150;2023-04-01T00:25:20;0.47;;;0.47;;
2928;SDS011;1474;51.460;7.150;2023-04-01T00:27:46;2.25;;;0.55;;
2928;SDS011;1474;51.460;7.150;2023-04-01T00:30:12;2.90;;;0.70;;
2928;SDS011;1474;51.460;7.150;2023-04-01T00:32:38;1.02;;;0.70;;
2928;SDS011;1474;51.460;7.150;2023-04-01T00:35:04;2.15;;;0.50;;
2928;SDS011;1474;51.460;7.150;2023-04-01T00:37:30;0.73;;;0.40;;
2928;SDS011;1474;51.460;7.150;2023-04-01T00:39:56;2.03;;;0.82;;
2928;SDS011;1474;51.460;7.150;2023-04-01T00:42:22;1.65;;;0.40;;
2928;SDS011;1474;51.460;7.150;2023-04-01T00:44:50;0.52;;;0.50;;
2928;SDS011;1474;51.460;7.150;2023-04-01T00:47:16;1.33;;;0.95;;
2928;SDS011;1474;51.460;7.150;2023-04-01T00:49:44;3.08;;;0.68;;
2928;SDS011;1474;51.460;7.150;2023-04-01T00:52:16;1.27;;;0.70;;
2928;SDS011;1474;51.460;7.150;2023-04-01T00:54:47;2.25;;;0.95;;
2928;SDS011;1474;51.460;7.150;2023-04-01T00:57:19;1.67;;;0.80;;
2928;SDS011;1474;51.460;7.150;2023-04-01T00:59:56;3.67;;;0.80;;
2928;SDS011;1474;51.460;7.150;2023-04-01T01:02:22;1.35;;;0.75;;
2928;SDS011;1474;51.460;7.150;2023-04-01T01:04:47;1.13;;;0.75;;
2928;SDS011;1474;51.460;7.150;2023-04-01T01:09:45;0.50;;;0.50;;
2928;SDS011;1474;51.460;7.150;2023-04-01T01:12:15;1.92;;;0.73;;
2928;SDS011;1474;51.460;7.150;2023-04-01T01:14:56;2.20;;;0.60;;
2928;SDS011;1474;51.460;7.150;2023-04-01T01:17:33;0.30;;;0.30;;
2928;SDS011;1474;51.460;7.150;2023-04-01T01:31:07;3.45;;;0.85;;
2928;SDS011;1474;51.460;7.150;2023-04-01T01:33:55;1.80;;;0.60;;
2928;SDS011;1474;51.460;7.150;2023-04-01T01:36:36;0.75;;;0.50;;
2928;SDS011;1474;51.460;7.150;2023-04-01T01:39:07;0.38;;;0.38;;
2928;SDS011;1474;51.460;7.150;2023-04-01T01:41:34;0.55;;;0.47;;
2928;SDS011;1474;51.460;7.150;2023-04-01T01:44:03;0.57;;;0.50;;
2928;SDS011;1474;51.460;7.150;2023-04-01T01:46:31;2.28;;;0.80;;
2928;SDS011;1474;51.460;7.150;2023-04-01T01:48:56;0.98;;;0.63;;
2928;SDS011;1474;51.460;7.150;2023-04-01T01:51:25;1.00;;;0.70;;
2928;SDS011;1474;51.460;7.150;2023-04-01T01:53:52;1.15;;;0.47;;
2928;SDS011;1474;51.460;7.150;2023-04-01T01:56:18;0.52;;;0.47;;
2928;SDS011;1474;51.460;7.150;2023-04-01T01:58:50;2.10;;;0.43;;
2928;SDS011;1474;51.460;7.150;2023-04-01T02:01:20;1.13;;;0.70;;
2928;SDS011;1474;51.460;7.150;2023-04-01T02:03:50;0.50;;;0.50;;
2928;SDS011;1474;51.460;7.150;2023-04-01T02:06:18;2.05;;;0.60;;
2928;SDS011;1474;51.460;7.150;2023-04-01T02:08:47;1.65;;;0.50;;
2928;SDS011;1474;51.460;7.150;2023-04-01T02:16:53;1.55;;;0.40;;
2928;SDS011;1474;51.460;7.150;2023-04-01T02:19:21;4.10;;;1.23;;
2928;SDS011;1474;51.460;7.150;2023-04-01T02:21:55;3.60;;;1.15;;
2928;SDS011;1474;51.460;7.150;2023-04-01T02:24:22;2.53;;;0.50;;
2928;SDS011;1474;51.460;7.150;2023-04-01T02:26:52;0.50;;;0.40;;
2928;SDS011;1474;51.460;7.150;2023-04-01T02:29:19;2.22;;;0.40;;
2928;SDS011;1474;51.460;7.150;2023-04-01T02:31:47;0.45;;;0.45;;
2928;SDS011;1474;51.460;7.150;2023-04-01T02:34:15;0.50;;;0.20;;
2928;SDS011;1474;51.460;7.150;2023-04-01T02:36:40;1.00;;;0.43;;
2928;SDS011;1474;51.460;7.150;2023-04-01T02:39:07;0.38;;;0.38;;
2928;SDS011;1474;51.460;7.150;2023-04-01T02:41:40;1.48;;;0.40;;
2928;SDS011;1474;51.460;7.150;2023-04-01T02:44:08;1.67;;;0.50;;
2928;SDS011;1474;51.460;7.150;2023-04-01T02:46:35;1.10;;;0.50;;
2928;SDS011;1474;51.460;7.150;2023-04-01T02:49:01;0.98;;;0.47;;
2928;SDS011;1474;51.460;7.150;2023-04-01T02:51:27;0.75;;;0.60;;
2928;SDS011;1474;51.460;7.150;2023-04-01T02:53:52;0.55;;;0.40;;
2928;SDS011;1474;51.460;7.150;2023-04-01T02:56:18;0.30;;;0.30;;
2928;SDS011;1474;51.460;7.150;2023-04-01T02:58:45;1.23;;;0.50;;
2928;SDS011;1474;51.460;7.150;2023-04-01T03:01:11;0.40;;;0.40;;
2928;SDS011;1474;51.460;7.150;2023-04-01T03:03:37;0.40;;;0.40;;
2928;SDS011;1474;51.460;7.150;2023-04-01T03:06:06;0.50;;;0.47;;
2928;SDS011;1474;51.460;7.150;2023-04-01T03:08:32;0.38;;;0.30;;
2928;SDS011;1474;51.460;7.150;2023-04-01T03:10:58;0.38;;;0.38;;
2928;SDS011;1474;51.460;7.150;2023-04-01T03:13:24;1.75;;;0.47;;
2928;SDS011;1474;51.460;7.150;2023-04-01T03:15:49;1.98;;;0.63;;
2928;SDS011;1474;51.460;7.150;2023-04-01T03:18:15;1.73;;;0.40;;
2928;SDS011;1474;51.460;7.150;2023-04-01T03:20:41;3.30;;;0.60;;
2928;SDS011;1474;51.460;7.150;2023-04-01T03:23:07;0.40;;;0.40;;
2928;SDS011;1474;51.460;7.150;2023-04-01T03:25:32;0.85;;;0.57;;
2928;SDS011;1474;51.460;7.150;2023-04-01T03:27:58;0.52;;;0.47;;
2928;SDS011;1474;51.460;7.150;2023-04-01T03:30:24;4.10;;;0.52;;
2928;SDS011;1474;51.460;7.150;2023-04-01T03:32:51;1.23;;;0.45;;
2928;SDS011;1474;51.460;7.150;2023-04-01T03:35:17;1.10;;;0.40;;
2928;SDS011;1474;51.460;7.150;2023-04-01T03:37:42;2.58;;;0.50;;
2928;SDS011;1474;51.460;7.150;2023-04-01T03:40:08;2.38;;;0.47;;
2928;SDS011;1474;51.460;7.150;2023-04-01T03:42:34;0.73;;;0.50;;
2928;SDS011;1474;51.460;7.150;2023-04-01T03:45:00;0.40;;;0.40;;
2928;SDS011;1474;51.460;7.150;2023-04-01T03:47:27;0.30;;;0.30;;
2928;SDS011;1474;51.460;7.150;2023-04-01T03:49:53;0.68;;;0.63;;
2928;SDS011;1474;51.460;7.150;2023-04-01T03:52:19;0.75;;;0.60;;
2928;SDS011;1474;51.460;7.150;2023-04-01T03:54:45;0.60;;;0.30;;
2928;SDS011;1474;51.460;7.150;2023-04-01T03:57:10;0.40;;;0.40;;
2928;SDS011;1474;51.460;7.150;2023-04-01T03:59:36;0.80;;;0.45;;
2928;SDS011;1474;51.460;7.150;2023-04-01T04:02:02;0.82;;;0.50;;
2928;SDS011;1474;51.460;7.150;2023-04-01T04:04:28;1.33;;;0.38;;
2928;SDS011;1474;51.460;7.150;2023-04-01T04:06:55;1.10;;;0.55;;
2928;SDS011;1474;51.460;7.150;2023-04-01T04:09:21;0.47;;;0.40;;
2928;SDS011;1474;51.460;7.150;2023-04-01T04:11:47;0.52;;;0.38;;
2928;SDS011;1474;51.460;7.150;2023-04-01T04:14:14;2.13;;;0.40;;
2928;SDS011;1474;51.460;7.150;2023-04-01T04:16:39;0.70;;;0.70;;
2928;SDS011;1474;51.460;7.150;2023-04-01T04:19:05;0.25;;;0.25;;
2928;SDS011;1474;51.460;7.150;2023-04-01T04:21:31;0.73;;;0.60;;
2928;SDS011;1474;51.460;7.150;2023-04-01T04:23:58;1.25;;;0.95;;
2928;SDS011;1474;51.460;7.150;2023-04-01T04:26:25;0.38;;;0.38;;
2928;SDS011;1474;51.460;7.150;2023-04-01T04:28:51;0.60;;;0.60;;
2928;SDS011;1474;51.460;7.150;2023-04-01T04:31:20;0.40;;;0.40;;
2928;SDS011;1474;51.460;7.150;2023-04-01T04:33:47;0.45;;;0.43;;
2928;SDS011;1474;51.460;7.150;2023-04-01T04:36:13;0.80;;;0.60;;
2928;SDS011;1474;51.460;7.150;2023-04-01T04:38:39;1.25;;;0.88;;
2928;SDS011;1474;51.460;7.150;2023-04-01T04:41:09;2.50;;;0.57;;
2928;SDS011;1474;51.460;7.150;2023-04-01T04:43:36;0.50;;;0.50;;
2928;SDS011;1474;51.460;7.150;2023-04-01T04:46:06;1.02;;;0.70;;
2928;SDS011;1474;51.460;7.150;2023-04-01T04:48:33;0.30;;;0.30;;
2928;SDS011;1474;51.460;7.150;2023-04-01T04:50:59;0.40;;;0.40;;
2928;SDS011;1474;51.460;7.150;2023-04-01T04:53:25;1.10;;;0.40;;
2928;SDS011;1474;51.460;7.150;2023-04-01T04:55:51;0.55;;;0.50;;
2928;SDS011;1474;51.460;7.150;2023-04-01T04:58:17;0.35;;;0.20;;
2928;SDS011;1474;51.460;7.150;2023-04-01T05:00:43;1.63;;;0.63;;
2928;SDS011;1474;51.460;7.150;2023-04-01T05:03:10;0.57;;;0.40;;
2928;SDS011;1474;51.460;7.150;2023-04-01T05:05:36;0.43;;;0.40;;
2928;SDS011;1474;51.460;7.150;2023-04-01T05:08:02;0.63;;;0.47;;
2928;SDS011;1474;51.460;7.150;2023-04-01T05:10:28;0.40;;;0.40;;
2928;SDS011;1474;51.460;7.150;2023-04-01T05:12:55;0.52;;;0.38;;
2928;SDS011;1474;51.460;7.150;2023-04-01T05:15:21;0.50;;;0.40;;
2928;SDS011;1474;51.460;7.150;2023-04-01T05:17:47;0.52;;;0.47;;
2928;SDS011;1474;51.460;7.150;2023-04-01T05:20:13;1.17;;;0.60;;
2928;SDS011;1474;51.460;7.150;2023-04-01T05:22:39;0.47;;;0.47;;
2928;SDS011;1474;51.460;7.150;2023-04-01T05:25:06;0.55;;;0.50;;
2928;SDS011;1474;51.460;7.150;2023-04-01T05:27:31;0.77;;;0.40;;
2928;SDS011;1474;51.460;7.150;2023-04-01T05:29:57;0.50;;;0.50;;
2928;SDS011;1474;51.460;7.150;2023-04-01T05:32:23;0.40;;;0.40;;
2928;SDS011;1474;51.460;7.150;2023-04-01T05:34:52;0.85;;;0.60;;
2928;SDS011;1474;51.460;7.150;2023-04-01T05:37:18;0.57;;;0.55;;
2928;SDS011;1474;51.460;7.150;2023-04-01T05:39:45;0.85;;;0.70;;
2928;SDS011;1474;51.460;7.150;2023-04-01T05:42:11;0.55;;;0.55;;
2928;SDS011;1474;51.460;7.150;2023-04-01T05:44:36;0.32;;;0.32;;
2928;SDS011;1474;51.460;7.150;2023-04-01T05:47:03;0.68;;;0.68;;
2928;SDS011;1474;51.460;7.150;2023-04-01T05:49:29;0.73;;;0.65;;
2928;SDS011;1474;51.460;7.150;2023-04-01T05:51:55;2.30;;;0.68;;
2928;SDS011;1474;51.460;7.150;2023-04-01T05:54:21;1.50;;;0.70;;
2928;SDS011;1474;51.460;7.150;2023-04-01T05:56:47;1.13;;;0.80;;
2928;SDS011;1474;51.460;7.150;2023-04-01T05:59:12;0.60;;;0.60;;
2928;SDS011;1474;51.460;7.150;2023-04-01T06:01:38;0.90;;;0.60;;
2928;SDS011;1474;51.460;7.150;2023-04-01T06:04:04;0.82;;;0.57;;
2928;SDS011;1474;51.460;7.150;2023-04-01T06:06:30;1.40;;;0.90;;
2928;SDS011;1474;51.460;7.150;2023-04-01T06:08:58;0.63;;;0.63;;
2928;SDS011;1474;51.460;7.150;2023-04-01T06:11:55;1.15;;;0.73;;
2928;SDS011;1474;51.460;7.150;2023-04-01T06:14:37;1.20;;;0.80;;
2928;SDS011;1474;51.460;7.150;2023-04-01T06:17:30;0.88;;;0.70;;
2928;SDS011;1474;51.460;7.150;2023-04-01T06:31:15;0.82;;;0.70;;
2928;SDS011;1474;51.460;7.150;2023-04-01T06:43:16;1.48;;;0.90;;
2928;SDS011;1474;51.460;7.150;2023-04-01T06:54:07;1.40;;;0.93;;
2928;SDS011;1474;51.460;7.150;2023-04-01T06:56:37;1.17;;;0.65;;
2928;SDS011;1474;51.460;7.150;2023-04-01T06:59:21;1.38;;;1.00;;
2928;SDS011;1474;51.460;7.150;2023-04-01T07:01:55;0.93;;;0.77;;
2928;SDS011;1474;51.460;7.150;2023-04-01T07:04:29;2.83;;;0.82;;
2928;SDS011;1474;51.460;7.150;2023-04-01T07:06:59;1.00;;;0.70;;
2928;SDS011;1474;51.460;7.150;2023-04-01T07:09:35;1.88;;;0.85;;
2928;SDS011;1474;51.460;7.150;2023-04-01T07:14:50;1.35;;;1.13;;
2928;SDS011;1474;51.460;7.150;2023-04-01T07:17:21;0.85;;;0.80;;
2928;SDS011;1474;51.460;7.150;2023-04-01T07:19:56;3.00;;;1.13;;
2928;SDS011;1474;51.460;7.150;2023-04-01T07:22:34;1.85;;;1.08;;
2928;SDS011;1474;51.460;7.150;2023-04-01T07:25:17;2.08;;;1.13;;
2928;SDS011;1474;51.460;7.150;2023-04-01T07:27:52;1.67;;;0.95;;
2928;SDS011;1474;51.460;7.150;2023-04-01T07:30:22;1.17;;;0.90;;
2928;SDS011;1474;51.460;7.150;2023-04-01T07:40:46;1.95;;;0.82;;
2928;SDS011;1474;51.460;7.150;2023-04-01T07:48:44;2.38;;;1.10;;
2928;SDS011;1474;51.460;7.150;2023-04-01T07:51:23;0.98;;;0.68;;
2928;SDS011;1474;51.460;7.150;2023-04-01T07:56:49;2.00;;;1.80;;
2928;SDS011;1474;51.460;7.150;2023-04-01T08:07:28;0.73;;;0.73;;
2928;SDS011;1474;51.460;7.150;2023-04-01T08:18:39;2.08;;;1.48;;
2928;SDS011;1474;51.460;7.150;2023-04-01T08:21:14;1.98;;;1.42;;
2928;SDS011;1474;51.460;7.150;2023-04-01T08:23:47;1.90;;;1.55;;
2928;SDS011;1474;51.460;7.150;2023-04-01T08:31:18;2.40;;;1.92;;
2928;SDS011;1474;51.460;7.150;2023-04-01T08:36:33;2.53;;;1.92;;
2928;SDS011;1474;51.460;7.150;2023-04-01T08:39:04;2.80;;;2.05;;
2928;SDS011;1474;51.460;7.150;2023-04-01T08:55:15;3.10;;;2.30;;
2928;SDS011;1474;51.460;7.150;2023-04-01T09:06:37;4.50;;;3.65;;
2928;SDS011;1474;51.460;7.150;2023-04-01T09:23:23;4.50;;;3.35;;
2928;SDS011;1474;51.460;7.150;2023-04-01T09:28:52;4.30;;;3.42;;
2928;SDS011;1474;51.460;7.150;2023-04-01T09:34:25;5.03;;;3.85;;
2928;SDS011;1474;51.460;7.150;2023-04-01T09:39:47;5.75;;;4.10;;
2928;SDS011;1474;51.460;7.150;2023-04-01T09:42:49;6.05;;;4.35;;
2928;SDS011;1474;51.460;7.150;2023-04-01T09:48:42;7.22;;;5.25;;
2928;SDS011;1474;51.460;7.150;2023-04-01T10:02:13;6.22;;;4.72;;
2928;SDS011;1474;51.460;7.150;2023-04-01T10:13:26;7.13;;;4.97;;
2928;SDS011;1474;51.460;7.150;2023-04-01T10:18:37;8.85;;;5.75;;
2928;SDS011;1474;51.460;7.150;2023-04-01T10:21:18;8.18;;;5.55;;
2928;SDS011;1474;51.460;7.150;2023-04-01T10:29:59;7.22;;;4.55;;
2928;SDS011;1474;51.460;7.150;2023-04-01T10:35:54;5.60;;;4.18;;
2928;SDS011;1474;51.460;7.150;2023-04-01T10:38:41;5.32;;;3.88;;
2928;SDS011;1474;51.460;7.150;2023-04-01T10:44:25;5.25;;;3.63;;
2928;SDS011;1474;51.460;7.150;2023-04-01T10:47:39;5.25;;;3.72;;
2928;SDS011;1474;51.460;7.150;2023-04-01T10:55:53;5.60;;;3.70;;
2928;SDS011;1474;51.460;7.150;2023-04-01T10:59:20;5.82;;;3.70;;
2928;SDS011;1474;51.460;7.150;2023-04-01T11:02:00;7.07;;;4.73;;
2928;SDS011;1474;51.460;7.150;2023-04-01T11:05:38;5.80;;;4.00;;
2928;SDS011;1474;51.460;7.150;2023-04-01T11:13:39;6.97;;;4.63;;
2928;SDS011;1474;51.460;7.150;2023-04-01T11:30:47;7.43;;;4.80;;
2928;SDS011;1474;51.460;7.150;2023-04-01T11:41:46;6.93;;;4.68;;
2928;SDS011;1474;51.460;7.150;2023-04-01T11:44:25;10.32;;;5.85;;
2928;SDS011;1474;51.460;7.150;2023-04-01T11:47:00;7.63;;;4.82;;
2928;SDS011;1474;51.460;7.150;2023-04-01T12:03:58;6.43;;;4.55;;
2928;SDS011;1474;51.460;7.150;2023-04-01T12:06:48;5.90;;;4.40;;
2928;SDS011;1474;51.460;7.150;2023-04-01T12:20:50;5.13;;;3.95;;
2928;SDS011;1474;51.460;7.150;2023-04-01T12:23:34;4.90;;;3.95;;
2928;SDS011;1474;51.460;7.150;2023-04-01T12:34:12;5.85;;;3.88;;
2928;SDS011;1474;51.460;7.150;2023-04-01T12:39:57;5.55;;;3.83;;
2928;SDS011;1474;51.460;7.150;2023-04-01T12:42:35;6.18;;;3.80;;
2928;SDS011;1474;51.460;7.150;2023-04-01T12:51:11;6.57;;;4.45;;
2928;SDS011;1474;51.460;7.150;2023-04-01T12:56:50;5.80;;;4.55;;
2928;SDS011;1474;51.460;7.150;2023-04-01T13:05:26;8.18;;;5.13;;
2928;SDS011;1474;51.460;7.150;2023-04-01T13:11:09;7.30;;;5.03;;
2928;SDS011;1474;51.460;7.150;2023-04-01T13:16:48;7.43;;;4.15;;
2928;SDS011;1474;51.460;7.150;2023-04-01T13:19:25;5.07;;;3.35;;
2928;SDS011;1474;51.460;7.150;2023-04-01T13:22:17;4.97;;;3.60;;
2928;SDS011;1474;51.460;7.150;2023-04-01T13:27:29;5.82;;;3.88;;
2928;SDS011;1474;51.460;7.150;2023-04-01T13:32:50;7.05;;;4.70;;
2928;SDS011;1474;51.460;7.150;2023-04-01T13:35:46;5.68;;;3.72;;
2928;SDS011;1474;51.460;7.150;2023-04-01T13:44:02;5.47;;;3.90;;
2928;SDS011;1474;51.460;7.150;2023-04-01T13:52:23;4.75;;;2.95;;
2928;SDS011;1474;51.460;7.150;2023-04-01T14:14:56;4.53;;;3.10;;
2928;SDS011;1474;51.460;7.150;2023-04-01T14:20:22;3.97;;;2.67;;
2928;SDS011;1474;51.460;7.150;2023-04-01T14:31:04;4.60;;;3.22;;
2928;SDS011;1474;51.460;7.150;2023-04-01T14:33:28;4.53;;;3.35;;
2928;SDS011;1474;51.460;7.150;2023-04-01T14:36:07;4.97;;;3.25;;
2928;SDS011;1474;51.460;7.150;2023-04-01T14:58:11;4.90;;;3.80;;
2928;SDS011;1474;51.460;7.150;2023-04-01T15:00:46;6.22;;;4.03;;
2928;SDS011;1474;51.460;7.150;2023-04-01T15:03:25;4.72;;;3.97;;
2928;SDS011;1474;51.460;7.150;2023-04-01T15:11:21;4.75;;;3.75;;
2928;SDS011;1474;51.460;7.150;2023-04-01T15:13:58;5.88;;;4.30;;
2928;SDS011;1474;51.460;7.150;2023-04-01T15:19:23;7.53;;;4.55;;
2928;SDS011;1474;51.460;7.150;2023-04-01T15:41:11;7.07;;;4.65;;
2928;SDS011;1474;51.460;7.150;2023-04-01T15:43:46;6.35;;;4.80;;
2928;SDS011;1474;51.460;7.150;2023-04-01T15:52:23;6.07;;;4.25;;
2928;SDS011;1474;51.460;7.150;2023-04-01T15:55:09;6.45;;;4.90;;
2928;SDS011;1474;51.460;7.150;2023-04-01T16:08:39;4.25;;;2.97;;
2928;SDS011;1474;51.460;7.150;2023-04-01T16:10:59;3.22;;;2.65;;
2928;SDS011;1474;51.460;7.150;2023-04-01T16:19:38;3.35;;;2.90;;
2928;SDS011;1474;51.460;7.150;2023-04-01T16:25:59;3.97;;;2.95;;
2928;SDS011;1474;51.460;7.150;2023-04-01T16:31:15;3.90;;;2.88;;
2928;SDS011;1474;51.460;7.150;2023-04-01T16:37:11;4.63;;;3.22;;
2928;SDS011;1474;51.460;7.150;2023-04-01T16:48:18;3.80;;;3.33;;
2928;SDS011;1474;51.460;7.150;2023-04-01T16:51:02;3.90;;;3.45;;
2928;SDS011;1474;51.460;7.150;2023-04-01T16:53:48;5.35;;;3.38;;
2928;SDS011;1474;51.460;7.150;2023-04-01T16:56:37;5.07;;;4.10;;
2928;SDS011;1474;51.460;7.150;2023-04-01T17:04:47;4.28;;;3.75;;
2928;SDS011;1474;51.460;7.150;2023-04-01T17:18:07;4.70;;;3.30;;
2928;SDS011;1474;51.460;7.150;2023-04-01T17:20:46;6.03;;;3.88;;
2928;SDS011;1474;51.460;7.150;2023-04-01T17:23:27;8.15;;;4.18;;
2928;SDS011;1474;51.460;7.150;2023-04-01T17:42:36;5.93;;;4.53;;
2928;SDS011;1474;51.460;7.150;2023-04-01T17:45:21;6.18;;;4.75;;
2928;SDS011;1474;51.460;7.150;2023-04-01T17:53:21;7.38;;;5.38;;
2928;SDS011;1474;51.460;7.150;2023-04-01T17:58:44;6.60;;;5.20;;
2928;SDS011;1474;51.460;7.150;2023-04-01T18:01:54;7.65;;;5.15;;
2928;SDS011;1474;51.460;7.150;2023-04-01T18:04:51;7.53;;;6.20;;
2928;SDS011;1474;51.460;7.150;2023-04-01T18:07:38;7.32;;;5.20;;
2928;SDS011;1474;51.460;7.150;2023-04-01T18:15:46;8.88;;;6.35;;
2928;SDS011;1474;51.460;7.150;2023-04-01T18:26:40;8.23;;;6.03;;
2928;SDS011;1474;51.460;7.150;2023-04-01T18:29:18;10.98;;;6.15;;
2928;SDS011;1474;51.460;7.150;2023-04-01T18:32:06;9.60;;;6.00;;
2928;SDS011;1474;51.460;7.150;2023-04-01T18:34:52;7.68;;;6.10;;
2928;SDS011;1474;51.460;7.150;2023-04-01T18:37:27;8.90;;;6.28;;
2928;SDS011;1474;51.460;7.150;2023-04-01T18:40:02;7.47;;;5.93;;
2928;SDS011;1474;51.460;7.150;2023-04-01T18:51:48;8.90;;;6.18;;
2928;SDS011;1474;51.460;7.150;2023-04-01T18:57:25;10.60;;;6.13;;
2928;SDS011;1474;51.460;7.150;2023-04-01T19:00:04;6.50;;;5.63;;
2928;SDS011;1474;51.460;7.150;2023-04-01T19:02:46;9.80;;;6.07;;
2928;SDS011;1474;51.460;7.150;2023-04-01T19:05:39;8.30;;;5.03;;
2928;SDS011;1474;51.460;7.150;2023-04-01T19:08:16;7.60;;;4.93;;
2928;SDS011;1474;51.460;7.150;2023-04-01T19:13:38;6.20;;;3.80;;
2928;SDS011;1474;51.460;7.150;2023-04-01T19:22:10;5.00;;;3.72;;
2928;SDS011;1474;51.460;7.150;2023-04-01T19:24:53;4.32;;;3.90;;
2928;SDS011;1474;51.460;7.150;2023-04-01T19:27:37;4.68;;;4.28;;
2928;SDS011;1474;51.460;7.150;2023-04-01T19:33:15;4.60;;;3.38;;
2928;SDS011;1474;51.460;7.150;2023-04-01T19:38:32;4.03;;;3.58;;
2928;SDS011;1474;51.460;7.150;2023-04-01T19:41:10;5.80;;;4.95;;
2928;SDS011;1474;51.460;7.150;2023-04-01T19:56:22;3.75;;;3.15;;
2928;SDS011;1474;51.460;7.150;2023-04-01T20:04:04;5.88;;;4.32;;
2928;SDS011;1474;51.460;7.150;2023-04-01T20:06:41;4.53;;;3.47;;
2928;SDS011;1474;51.460;7.150;2023-04-01T20:17:21;5.22;;;4.57;;
2928;SDS011;1474;51.460;7.150;2023-04-01T20:36:26;3.30;;;2.65;;
2928;SDS011;1474;51.460;7.150;2023-04-01T20:39:15;3.85;;;3.45;;
2928;SDS011;1474;51.460;7.150;2023-04-01T20:53:15;4.60;;;3.42;;
2928;SDS011;1474;51.460;7.150;2023-04-01T20:55:56;3.53;;;3.13;;
2928;SDS011;1474;51.460;7.150;2023-04-01T21:03:34;5.03;;;3.30;;
2928;SDS011;1474;51.460;7.150;2023-04-01T21:06:15;2.67;;;2.40;;
2928;SDS011;1474;51.460;7.150;2023-04-01T21:14:28;4.13;;;3.20;;
2928;SDS011;1474;51.460;7.150;2023-04-01T21:22:52;3.97;;;3.22;;
2928;SDS011;1474;51.460;7.150;2023-04-01T21:25:39;5.15;;;3.72;;
2928;SDS011;1474;51.460;7.150;2023-04-01T21:31:30;3.65;;;2.75;;
2928;SDS011;1474;51.460;7.150;2023-04-01T21:34:34;4.47;;;3.40;;
2928;SDS011;1474;51.460;7.150;2023-04-01T21:42:32;3.50;;;2.40;;
2928;SDS011;1474;51.460;7.150;2023-04-01T21:45:25;6.15;;;3.40;;
2928;SDS011;1474;51.460;7.150;2023-04-01T21:59:32;4.78;;;2.97;;
2928;SDS011;1474;51.460;7.150;2023-04-01T22:08:02;2.85;;;2.28;;
2928;SDS011;1474;51.460;7.150;2023-04-01T22:10:59;4.25;;;3.22;;
2928;SDS011;1474;51.460;7.150;2023-04-01T22:14:13;3.63;;;2.78;;
2928;SDS011;1474;51.460;7.150;2023-04-01T22:17:14;4.22;;;3.03;;
2928;SDS011;1474;51.460;7.150;2023-04-01T22:28:18;2.08;;;1.67;;
2928;SDS011;1474;51.460;7.150;2023-04-01T22:30:55;3.30;;;2.75;;
2928;SDS011;1474;51.460;7.150;2023-04-01T22:33:29;3.83;;;2.72;;
2928;SDS011;1474;51.460;7.150;2023-04-01T22:43:54;3.08;;;2.78;;
2928;SDS011;1474;51.460;7.150;2023-04-01T22:49:22;2.97;;;2.03;;
2928;SDS011;1474;51.460;7.150;2023-04-01T22:54:54;4.10;;;3.67;;
2928;SDS011;1474;51.460;7.150;2023-04-01T23:05:29;4.68;;;2.53;;
2928;SDS011;1474;51.460;7.150;2023-04-01T23:10:49;3.55;;;3.08;;
2928;SDS011;1474;51.460;7.150;2023-04-01T23:13:19;4.88;;;3.40;;
2928;SDS011;1474;51.460;7.150;2023-04-01T23:15:50;3.42;;;2.88;;
2928;SDS011;1474;51.460;7.150;2023-04-01T23:18:30;4.85;;;3.95;;
2928;SDS011;1474;51.460;7.150;2023-04-01T23:21:05;6.07;;;4.32;;
2928;SDS011;1474;51.460;7.150;2023-04-01T23:26:43;2.80;;;2.55;;
2928;SDS011;1474;51.460;7.150;2023-04-01T23:29:24;6.25;;;4.38;;
2928;SDS011;1474;51.460;7.150;2023-04-01T23:31:57;4.40;;;3.38;;
2928;SDS011;1474;51.460;7.150;2023-04-01T23:34:26;3.95;;;2.83;;
2928;SDS011;1474;51.460;7.150;2023-04-01T23:37:00;2.70;;;2.40;;
2928;SDS011;1474;51.460;7.150;2023-04-01T23:39:30;3.72;;;3.35;;
2928;SDS011;1474;51.460;7.150;2023-04-01T23:42:00;4.63;;;4.18;;
2928;SDS011;1474;51.460;7.150;2023-04-01T23:44:29;3.25;;;2.60;;
2928;SDS011;1474;51.460;7.150;2023-04-01T23:46:56;3.50;;;2.47;;
2928;SDS011;1474;51.460;7.150;2023-04-01T23:49:25;4.47;;;3.35;;
2928;SDS011;1474;51.460;7.150;2023-04-01T23:51:58;5.78;;;3.10;;
2928;SDS011;1474;51.460;7.150;2023-04-01T23:54:32;4.25;;;2.92;;
2928;SDS011;1474;51.460;7.150;2023-04-01T23:57:10;2.80;;;2.53;;
2928;SDS011;1474;51.460;7.150;2023-04-01T23:59:43;2.97;;;1.95;;
